createdAt,value
2023-03-18T00:02:22.003Z,8.53
2023-03-18T00:07:45.368Z,12.87
2023-03-18T00:13:07.810Z,7.73
2023-03-18T00:18:30.254Z,9.63
2023-03-18T00:23:56.715Z,7.47
2023-03-18T00:29:19.659Z,9.03
2023-03-18T00:34:41.963Z,8.37
2023-03-18T00:40:08.006Z,8.70
2023-03-18T00:45:30.272Z,9.53
2023-03-18T00:50:52.554Z,6.73
2023-03-18T00:56:16.157Z,7.83
2023-03-18T01:01:39.395Z,6.57
2023-03-18T01:07:02.768Z,7.20
2023-03-18T01:12:25.754Z,7.20
2023-03-18T01:17:48.344Z,7.03
2023-03-18T01:23:14.379Z,8.70
2023-03-18T01:28:38.872Z,10.07
2023-03-18T01:34:02.361Z,12.53
2023-03-18T01:39:34.636Z,6.33
2023-03-18T01:45:21.811Z,12.10
2023-03-18T01:50:53.155Z,6.53
2023-03-18T01:56:18.020Z,5.93
2023-03-18T02:01:48.528Z,7.80
2023-03-18T02:07:23.924Z,6.87
2023-03-18T02:12:51.821Z,7.83
2023-03-18T02:18:27.463Z,5.73
2023-03-18T02:23:58.649Z,3.87
2023-03-18T02:29:23.502Z,7.10
2023-03-18T02:34:54.989Z,9.00
2023-03-18T02:40:31.019Z,7.17
2023-03-18T02:46:21.377Z,6.03
2023-03-18T02:51:45.919Z,7.37
2023-03-18T02:57:09.007Z,9.87
2023-03-18T03:02:33.636Z,8.00
2023-03-18T03:07:56.229Z,6.80
2023-03-18T03:13:20.689Z,5.77
2023-03-18T03:18:44.127Z,4.97
2023-03-18T03:24:07.640Z,9.73
2023-03-18T03:29:30.275Z,6.27
2023-03-18T03:34:52.848Z,5.83
2023-03-18T03:40:17.120Z,6.43
2023-03-18T03:45:40.177Z,6.43
2023-03-18T03:51:02.974Z,3.63
2023-03-18T03:56:25.543Z,7.40
2023-03-18T04:01:48.455Z,7.10
2023-03-18T04:07:11.982Z,7.80
2023-03-18T04:12:34.627Z,6.47
2023-03-18T04:17:57.486Z,4.13
2023-03-18T04:23:21.032Z,7.63
2023-03-18T04:28:43.492Z,6.20
2023-03-18T04:34:09.949Z,6.13
2023-03-18T04:39:32.806Z,7.33
2023-03-18T04:44:55.274Z,4.93
2023-03-18T04:50:19.237Z,9.83
2023-03-18T04:55:42.139Z,6.23
2023-03-18T05:01:06.713Z,5.27
2023-03-18T05:06:33.787Z,5.07
2023-03-18T05:12:13.415Z,8.07
2023-03-18T05:17:36.085Z,9.27
2023-03-18T05:23:00.043Z,10.87
2023-03-18T05:28:45.577Z,4.93
2023-03-18T05:34:18.093Z,8.77
2023-03-18T05:39:44.820Z,8.57
2023-03-18T05:45:10.353Z,5.60
2023-03-18T05:50:43.766Z,6.00
2023-03-18T05:56:12.475Z,6.80
2023-03-18T06:01:37.486Z,6.43
2023-03-18T06:07:01.347Z,6.87
2023-03-18T06:12:27.452Z,8.30
2023-03-18T06:17:50.459Z,5.03
2023-03-18T06:23:14.457Z,7.53
2023-03-18T06:28:37.132Z,6.67
2023-03-18T06:34:07.593Z,11.70
2023-03-18T06:39:34.897Z,6.00
2023-03-18T06:45:01.559Z,7.70
2023-03-18T06:50:39.686Z,9.30
2023-03-18T06:56:08.108Z,6.63
2023-03-18T07:01:41.602Z,9.70
2023-03-18T07:07:05.991Z,8.03
2023-03-18T07:12:30.175Z,6.80
2023-03-18T07:17:53.329Z,10.50
2023-03-18T07:23:15.922Z,8.90
2023-03-18T07:28:38.885Z,8.57
2023-03-18T07:34:01.470Z,6.77
2023-03-18T07:39:23.727Z,7.03
2023-03-18T07:44:46.346Z,7.47
2023-03-18T07:50:10.269Z,9.13
2023-03-18T07:55:33.933Z,9.97
2023-03-18T08:00:57.718Z,8.97
2023-03-18T08:06:21.306Z,6.40
2023-03-18T08:11:43.888Z,6.30
2023-03-18T08:17:06.344Z,7.47
2023-03-18T08:22:29.687Z,9.50
2023-03-18T08:27:52.524Z,8.13
2023-03-18T08:33:15.953Z,8.43
2023-03-18T08:38:39.376Z,9.20
2023-03-18T08:44:03.619Z,6.40
2023-03-18T08:49:26.376Z,8.40
2023-03-18T08:54:49.401Z,5.20
2023-03-18T09:00:13.545Z,7.67
2023-03-18T09:05:36.025Z,6.17
2023-03-18T09:10:59.808Z,9.20
2023-03-18T09:16:22.215Z,9.47
2023-03-18T09:21:44.773Z,8.70
2023-03-18T09:27:07.041Z,7.97
2023-03-18T09:32:30.025Z,8.13
2023-03-18T09:37:54.144Z,6.60
2023-03-18T09:43:36.174Z,9.07
2023-03-18T09:49:23.546Z,7.43
2023-03-18T09:55:03.514Z,5.97
2023-03-18T10:00:32.530Z,18.70
2023-03-18T10:06:08.055Z,7.67
2023-03-18T10:11:44.035Z,10.10
2023-03-18T10:17:24.854Z,7.27
2023-03-18T10:23:21.556Z,8.13
2023-03-18T10:29:02.521Z,10.60
2023-03-18T10:34:34.025Z,9.60
2023-03-18T10:39:56.772Z,11.83
2023-03-18T10:45:25.208Z,7.90
2023-03-18T10:50:57.160Z,6.73
2023-03-18T10:56:19.841Z,11.67
2023-03-18T11:01:47.041Z,6.30
2023-03-18T11:07:17.404Z,8.60
2023-03-18T11:12:39.929Z,10.00
2023-03-18T11:18:03.389Z,7.80
2023-03-18T11:23:56.170Z,6.13
2023-03-18T11:29:24.511Z,8.07
2023-03-18T11:34:55.841Z,6.10
2023-03-18T11:40:26.333Z,5.90
2023-03-18T11:45:57.779Z,7.45
2023-03-18T11:51:42.963Z,7.70
2023-03-18T11:57:40.569Z,11.57
2023-03-18T12:03:21.136Z,7.18
2023-03-18T12:09:07.157Z,9.13
2023-03-18T12:14:35.395Z,6.57
2023-03-18T12:20:32.632Z,6.70
2023-03-18T12:26:08.520Z,13.55
2023-03-18T12:32:10.040Z,8.52
2023-03-18T12:38:10.127Z,13.20
2023-03-18T12:43:39.740Z,5.07
2023-03-18T12:49:06.229Z,8.43
2023-03-18T12:54:36.530Z,8.02
2023-03-18T13:00:06.748Z,6.97
2023-03-18T13:06:05.241Z,6.93
2023-03-18T13:11:39.655Z,9.05
2023-03-18T13:17:04.682Z,6.78
2023-03-18T13:22:48.426Z,4.47
2023-03-18T13:28:53.203Z,5.38
2023-03-18T13:34:33.914Z,9.02
2023-03-18T13:40:30.733Z,6.40
2023-03-18T13:45:56.102Z,11.52
2023-03-18T13:51:24.712Z,6.75
2023-03-18T13:56:55.614Z,6.55
2023-03-18T14:02:45.526Z,7.55
2023-03-18T14:08:38.857Z,4.72
2023-03-18T14:14:04.650Z,4.70
2023-03-18T14:19:32.772Z,3.80
2023-03-18T14:25:13.579Z,8.55
2023-03-18T14:30:36.997Z,5.82
2023-03-18T14:36:10.541Z,5.60
2023-03-18T14:41:37.908Z,5.50
2023-03-18T14:47:04.083Z,7.53
2023-03-18T14:52:39.574Z,4.63
2023-03-18T14:58:02.852Z,4.47
2023-03-18T15:03:28.910Z,3.50
2023-03-18T15:09:14.516Z,5.85
2023-03-18T15:14:38.030Z,5.82
2023-03-18T15:20:01.263Z,5.55
2023-03-18T15:25:24.584Z,4.05
2023-03-18T15:30:58.557Z,7.68
2023-03-18T15:36:22.105Z,4.63
2023-03-18T15:41:44.736Z,29.42
2023-03-18T15:47:15.311Z,7.78
2023-03-18T15:52:43.025Z,29.35
2023-03-18T15:58:24.491Z,7.07
2023-03-18T16:03:46.804Z,4.85
2023-03-18T16:09:16.358Z,5.60
2023-03-18T16:14:42.885Z,12.63
2023-03-18T16:20:20.673Z,5.25
2023-03-18T16:25:48.936Z,4.40
2023-03-18T16:31:12.177Z,4.53
2023-03-18T16:36:35.408Z,9.85
2023-03-18T16:41:57.916Z,8.35
2023-03-18T16:47:27.788Z,4.60
2023-03-18T16:52:50.979Z,4.93
2023-03-18T16:58:17.828Z,5.72
2023-03-18T17:03:40.005Z,6.70
2023-03-18T17:09:02.386Z,4.13
2023-03-18T17:14:27.561Z,6.80
2023-03-18T17:19:50.069Z,5.65
2023-03-18T17:25:12.582Z,4.32
2023-03-18T17:30:38.426Z,6.17
2023-03-18T17:36:02.034Z,6.63
2023-03-18T17:41:24.791Z,4.80
2023-03-18T17:46:47.316Z,7.20
2023-03-18T17:52:11.411Z,7.10
2023-03-18T17:57:34.010Z,8.50
2023-03-18T18:02:58.153Z,6.33
2023-03-18T18:08:22.544Z,6.73
2023-03-18T18:13:45.069Z,5.13
2023-03-18T18:19:10.733Z,5.30
2023-03-18T18:24:33.584Z,5.40
2023-03-18T18:29:56.246Z,6.17
2023-03-18T18:35:21.401Z,8.63
2023-03-18T18:40:43.521Z,5.87
2023-03-18T18:46:12.977Z,8.77
2023-03-18T18:51:35.526Z,4.77
2023-03-18T18:56:57.817Z,7.73
2023-03-18T19:02:33.814Z,5.30
2023-03-18T19:07:56.488Z,7.60
2023-03-18T19:13:18.787Z,10.37
2023-03-18T19:18:42.950Z,9.67
2023-03-18T19:24:26.938Z,8.47
2023-03-18T19:29:50.241Z,6.60
2023-03-18T19:35:13.591Z,8.13
2023-03-18T19:40:36.205Z,8.00
2023-03-18T19:45:58.480Z,8.73
2023-03-18T19:51:21.291Z,8.97
2023-03-18T19:56:43.634Z,10.20
2023-03-18T20:02:22.551Z,10.47
2023-03-18T20:07:45.029Z,7.67
2023-03-18T20:13:14.836Z,9.50
2023-03-18T20:18:37.440Z,8.47
2023-03-18T20:24:05.692Z,8.50
2023-03-18T20:29:29.022Z,8.90
2023-03-18T20:34:51.525Z,20.20
2023-03-18T20:40:20.868Z,22.23
2023-03-18T20:45:44.476Z,24.30
2023-03-18T20:51:20.521Z,23.90
2023-03-18T20:56:42.698Z,14.33
2023-03-18T21:02:35.604Z,10.03
2023-03-18T21:07:58.396Z,8.83
2023-03-18T21:13:33.803Z,13.27
2023-03-18T21:18:56.448Z,8.40
2023-03-18T21:24:27.052Z,7.80
2023-03-18T21:29:51.277Z,8.83
2023-03-18T21:35:24.118Z,12.70
2023-03-18T21:40:46.589Z,9.20
2023-03-18T21:46:16.333Z,8.67
2023-03-18T21:51:40.341Z,9.43
2023-03-18T21:57:02.939Z,16.30
2023-03-18T22:02:32.565Z,14.60
2023-03-18T22:07:55.501Z,15.30
2023-03-18T22:13:19.042Z,10.00
2023-03-18T22:18:42.745Z,14.00
2023-03-18T22:24:05.762Z,14.30
2023-03-18T22:29:28.196Z,17.20
2023-03-18T22:34:52.054Z,36.60
2023-03-18T22:40:31.425Z,34.83
2023-03-18T22:45:53.942Z,38.17
2023-03-18T22:51:24.008Z,30.73
2023-03-18T22:56:46.328Z,20.33
2023-03-18T23:02:21.616Z,23.53
2023-03-18T23:07:44.622Z,17.83
2023-03-18T23:13:26.908Z,21.40
2023-03-18T23:18:50.555Z,16.43
2023-03-18T23:24:15.451Z,12.07
2023-03-18T23:29:37.726Z,10.27
2023-03-18T23:35:00.703Z,12.20
2023-03-18T23:40:23.326Z,13.23
2023-03-18T23:45:45.891Z,10.93
2023-03-18T23:51:08.400Z,15.40
2023-03-18T23:56:31.278Z,13.90
